sensor_id;sensor_type;location;lat;lon;timestamp;temperature;humidity
11848;DHT22;5983;49.966;8.052;2023-04-15T00:01:17;5.00;99.90
11848;DHT22;5983;49.966;8.052;2023-04-15T00:03:44;5.00;99.90
11848;DHT22;5983;49.966;8.052;2023-04-15T00:06:11;5.00;99.90
11848;DHT22;5983;49.966;8.052;2023-04-15T00:08:38;4.90;99.90
11848;DHT22;5983;49.966;8.052;2023-04-15T00:11:06;4.90;99.90
11848;DHT22;5983;49.966;8.052;2023-04-15T00:13:33;4.90;99.90
11848;DHT22;5983;49.966;8.052;2023-04-15T00:16:00;4.80;99.90
11848;DHT22;5983;49.966;8.052;2023-04-15T00:18:27;4.80;99.90
11848;DHT22;5983;49.966;8.052;2023-04-15T00:20:55;4.80;99.90
11848;DHT22;5983;49.966;8.052;2023-04-15T00:23:22;4.80;99.90
11848;DHT22;5983;49.966;8.052;2023-04-15T00:25:49;4.90;99.90
11848;DHT22;5983;49.966;8.052;2023-04-15T00:28:17;4.90;99.90
11848;DHT22;5983;49.966;8.052;2023-04-15T00:30:44;4.90;99.90
11848;DHT22;5983;49.966;8.052;2023-04-15T00:33:11;4.90;99.90
11848;DHT22;5983;49.966;8.052;2023-04-15T00:35:38;4.90;99.90
11848;DHT22;5983;49.966;8.052;2023-04-15T00:38:05;4.90;99.90
11848;DHT22;5983;49.966;8.052;2023-04-15T00:40:33;4.80;99.90
11848;DHT22;5983;49.966;8.052;2023-04-15T00:43:00;4.80;99.90
11848;DHT22;5983;49.966;8.052;2023-04-15T00:45:29;4.80;99.90
11848;DHT22;5983;49.966;8.052;2023-04-15T00:47:57;4.70;99.90
11848;DHT22;5983;49.966;8.052;2023-04-15T00:50:25;4.70;99.90
11848;DHT22;5983;49.966;8.052;2023-04-15T00:52:51;4.70;99.90
11848;DHT22;5983;49.966;8.052;2023-04-15T00:55:18;4.60;99.90
11848;DHT22;5983;49.966;8.052;2023-04-15T00:57:45;4.50;99.90
11848;DHT22;5983;49.966;8.052;2023-04-15T01:00:12;4.50;99.90
11848;DHT22;5983;49.966;8.052;2023-04-15T01:02:40;4.40;99.90
11848;DHT22;5983;49.966;8.052;2023-04-15T01:05:07;4.40;99.90
11848;DHT22;5983;49.966;8.052;2023-04-15T01:07:34;4.40;99.90
11848;DHT22;5983;49.966;8.052;2023-04-15T01:10:01;4.40;99.90
11848;DHT22;5983;49.966;8.052;2023-04-15T01:12:28;4.50;99.90
11848;DHT22;5983;49.966;8.052;2023-04-15T01:14:58;4.40;99.90
11848;DHT22;5983;49.966;8.052;2023-04-15T01:17:25;4.40;99.90
11848;DHT22;5983;49.966;8.052;2023-04-15T01:19:54;4.40;99.90
11848;DHT22;5983;49.966;8.052;2023-04-15T01:22:22;4.40;99.90
11848;DHT22;5983;49.966;8.052;2023-04-15T01:24:53;4.40;99.90
11848;DHT22;5983;49.966;8.052;2023-04-15T01:27:30;4.30;99.90
11848;DHT22;5983;49.966;8.052;2023-04-15T01:29:57;4.40;99.90
11848;DHT22;5983;49.966;8.052;2023-04-15T01:32:24;4.40;99.90
11848;DHT22;5983;49.966;8.052;2023-04-15T01:34:51;4.30;99.90
11848;DHT22;5983;49.966;8.052;2023-04-15T01:37:18;4.30;99.90
11848;DHT22;5983;49.966;8.052;2023-04-15T01:39:45;4.20;99.90
11848;DHT22;5983;49.966;8.052;2023-04-15T01:42:11;4.20;99.90
11848;DHT22;5983;49.966;8.052;2023-04-15T01:44:39;4.10;99.90
11848;DHT22;5983;49.966;8.052;2023-04-15T01:47:06;4.10;99.90
11848;DHT22;5983;49.966;8.052;2023-04-15T01:49:33;4.00;99.90
11848;DHT22;5983;49.966;8.052;2023-04-15T01:52:00;4.00;99.90
11848;DHT22;5983;49.966;8.052;2023-04-15T01:54:27;4.00;99.90
11848;DHT22;5983;49.966;8.052;2023-04-15T01:56:54;4.00;99.90
11848;DHT22;5983;49.966;8.052;2023-04-15T01:59:21;4.00;99.90
11848;DHT22;5983;49.966;8.052;2023-04-15T02:01:49;3.90;99.90
11848;DHT22;5983;49.966;8.052;2023-04-15T02:04:16;3.90;99.90
11848;DHT22;5983;49.966;8.052;2023-04-15T02:06:43;3.90;99.90
11848;DHT22;5983;49.966;8.052;2023-04-15T02:09:10;3.80;99.90
11848;DHT22;5983;49.966;8.052;2023-04-15T02:11:37;3.90;99.90
11848;DHT22;5983;49.966;8.052;2023-04-15T02:14:04;3.90;99.90
11848;DHT22;5983;49.966;8.052;2023-04-15T02:16:31;3.90;99.90
11848;DHT22;5983;49.966;8.052;2023-04-15T02:18:59;3.90;99.90
11848;DHT22;5983;49.966;8.052;2023-04-15T02:21:27;3.80;99.90
11848;DHT22;5983;49.966;8.052;2023-04-15T02:23:54;3.80;99.90
11848;DHT22;5983;49.966;8.052;2023-04-15T02:26:21;3.80;99.90
11848;DHT22;5983;49.966;8.052;2023-04-15T02:28:49;3.90;99.90
11848;DHT22;5983;49.966;8.052;2023-04-15T02:31:16;3.80;99.90
11848;DHT22;5983;49.966;8.052;2023-04-15T02:33:43;3.80;99.90
11848;DHT22;5983;49.966;8.052;2023-04-15T02:36:11;3.80;99.90
11848;DHT22;5983;49.966;8.052;2023-04-15T02:38:38;3.80;99.90
11848;DHT22;5983;49.966;8.052;2023-04-15T02:41:07;3.80;99.90
11848;DHT22;5983;49.966;8.052;2023-04-15T02:43:34;3.80;99.90
11848;DHT22;5983;49.966;8.052;2023-04-15T02:46:02;3.80;99.90
11848;DHT22;5983;49.966;8.052;2023-04-15T02:48:29;3.80;99.90
11848;DHT22;5983;49.966;8.052;2023-04-15T02:51:09;3.70;99.90
11848;DHT22;5983;49.966;8.052;2023-04-15T02:53:38;3.70;99.90
11848;DHT22;5983;49.966;8.052;2023-04-15T02:56:06;3.70;99.90
11848;DHT22;5983;49.966;8.052;2023-04-15T02:58:33;3.70;99.90
11848;DHT22;5983;49.966;8.052;2023-04-15T03:01:00;3.70;99.90
11848;DHT22;5983;49.966;8.052;2023-04-15T03:03:27;3.60;99.90
11848;DHT22;5983;49.966;8.052;2023-04-15T03:05:54;3.50;99.90
11848;DHT22;5983;49.966;8.052;2023-04-15T03:08:22;3.50;99.90
11848;DHT22;5983;49.966;8.052;2023-04-15T03:10:48;3.50;99.90
11848;DHT22;5983;49.966;8.052;2023-04-15T03:13:16;3.50;99.90
11848;DHT22;5983;49.966;8.052;2023-04-15T03:15:45;3.50;99.90
11848;DHT22;5983;49.966;8.052;2023-04-15T03:18:12;3.50;99.90
11848;DHT22;5983;49.966;8.052;2023-04-15T03:20:39;3.50;99.90
11848;DHT22;5983;49.966;8.052;2023-04-15T03:23:06;3.50;99.90
11848;DHT22;5983;49.966;8.052;2023-04-15T03:25:34;3.50;99.90
11848;DHT22;5983;49.966;8.052;2023-04-15T03:28:02;3.50;99.90
11848;DHT22;5983;49.966;8.052;2023-04-15T03:30:29;3.40;99.90
11848;DHT22;5983;49.966;8.052;2023-04-15T03:32:56;3.40;99.90
11848;DHT22;5983;49.966;8.052;2023-04-15T03:35:22;3.40;99.90
11848;DHT22;5983;49.966;8.052;2023-04-15T03:37:49;3.30;99.90
11848;DHT22;5983;49.966;8.052;2023-04-15T03:40:16;3.20;99.90
11848;DHT22;5983;49.966;8.052;2023-04-15T03:42:44;3.20;99.90
11848;DHT22;5983;49.966;8.052;2023-04-15T03:45:11;3.20;99.90
11848;DHT22;5983;49.966;8.052;2023-04-15T03:47:38;3.20;99.90
11848;DHT22;5983;49.966;8.052;2023-04-15T03:50:05;3.20;99.90
11848;DHT22;5983;49.966;8.052;2023-04-15T03:52:32;3.10;99.90
11848;DHT22;5983;49.966;8.052;2023-04-15T03:54:59;3.10;99.90
11848;DHT22;5983;49.966;8.052;2023-04-15T03:57:26;3.10;99.90
11848;DHT22;5983;49.966;8.052;2023-04-15T03:59:54;3.00;99.90
11848;DHT22;5983;49.966;8.052;2023-04-15T04:02:21;3.00;99.90
11848;DHT22;5983;49.966;8.052;2023-04-15T04:04:48;3.00;99.90
11848;DHT22;5983;49.966;8.052;2023-04-15T04:07:15;3.00;99.90
11848;DHT22;5983;49.966;8.052;2023-04-15T04:09:42;3.00;99.90
11848;DHT22;5983;49.966;8.052;2023-04-15T04:12:08;3.00;99.90
11848;DHT22;5983;49.966;8.052;2023-04-15T04:14:35;2.90;99.90
11848;DHT22;5983;49.966;8.052;2023-04-15T04:17:03;2.90;99.90
11848;DHT22;5983;49.966;8.052;2023-04-15T04:19:30;3.00;99.90
11848;DHT22;5983;49.966;8.052;2023-04-15T04:21:57;3.00;99.90
11848;DHT22;5983;49.966;8.052;2023-04-15T04:24:24;3.00;99.90
11848;DHT22;5983;49.966;8.052;2023-04-15T04:26:51;3.00;99.90
11848;DHT22;5983;49.966;8.052;2023-04-15T04:29:18;3.00;99.90
11848;DHT22;5983;49.966;8.052;2023-04-15T04:31:45;3.00;99.90
11848;DHT22;5983;49.966;8.052;2023-04-15T04:34:14;3.00;99.90
11848;DHT22;5983;49.966;8.052;2023-04-15T04:36:41;2.90;99.90
11848;DHT22;5983;49.966;8.052;2023-04-15T04:39:07;2.90;99.90
11848;DHT22;5983;49.966;8.052;2023-04-15T04:41:34;2.80;99.90
11848;DHT22;5983;49.966;8.052;2023-04-15T04:44:01;2.80;99.90
11848;DHT22;5983;49.966;8.052;2023-04-15T04:46:27;2.80;99.90
11848;DHT22;5983;49.966;8.052;2023-04-15T04:48:54;2.80;99.90
11848;DHT22;5983;49.966;8.052;2023-04-15T04:51:22;2.90;99.90
11848;DHT22;5983;49.966;8.052;2023-04-15T04:53:49;2.90;99.90
11848;DHT22;5983;49.966;8.052;2023-04-15T04:56:16;2.90;99.90
11848;DHT22;5983;49.966;8.052;2023-04-15T04:58:42;2.90;99.90
11848;DHT22;5983;49.966;8.052;2023-04-15T05:01:10;2.90;99.90
11848;DHT22;5983;49.966;8.052;2023-04-15T05:03:37;3.00;99.90
11848;DHT22;5983;49.966;8.052;2023-04-15T05:06:04;3.00;99.90
11848;DHT22;5983;49.966;8.052;2023-04-15T05:08:34;3.10;99.90
11848;DHT22;5983;49.966;8.052;2023-04-15T05:11:01;3.10;99.90
11848;DHT22;5983;49.966;8.052;2023-04-15T05:13:28;3.20;99.90
11848;DHT22;5983;49.966;8.052;2023-04-15T05:15:55;3.20;99.90
11848;DHT22;5983;49.966;8.052;2023-04-15T05:18:22;3.30;99.90
11848;DHT22;5983;49.966;8.052;2023-04-15T05:20:49;3.30;99.90
11848;DHT22;5983;49.966;8.052;2023-04-15T05:23:16;3.40;99.90
11848;DHT22;5983;49.966;8.052;2023-04-15T05:25:44;3.40;99.90
11848;DHT22;5983;49.966;8.052;2023-04-15T05:28:11;3.40;99.90
11848;DHT22;5983;49.966;8.052;2023-04-15T05:30:38;3.30;99.90
11848;DHT22;5983;49.966;8.052;2023-04-15T05:33:05;3.30;99.90
11848;DHT22;5983;49.966;8.052;2023-04-15T05:35:32;3.30;99.90
11848;DHT22;5983;49.966;8.052;2023-04-15T05:37:58;3.30;99.90
11848;DHT22;5983;49.966;8.052;2023-04-15T05:40:25;3.40;99.90
11848;DHT22;5983;49.966;8.052;2023-04-15T05:42:53;3.50;99.90
11848;DHT22;5983;49.966;8.052;2023-04-15T05:45:20;3.60;99.90
11848;DHT22;5983;49.966;8.052;2023-04-15T05:47:47;3.80;99.90
11848;DHT22;5983;49.966;8.052;2023-04-15T05:50:15;3.80;99.90
11848;DHT22;5983;49.966;8.052;2023-04-15T05:52:42;3.90;99.90
11848;DHT22;5983;49.966;8.052;2023-04-15T05:55:08;4.00;99.90
11848;DHT22;5983;49.966;8.052;2023-04-15T05:57:36;4.10;99.90
11848;DHT22;5983;49.966;8.052;2023-04-15T06:00:04;4.30;99.90
11848;DHT22;5983;49.966;8.052;2023-04-15T06:02:32;4.50;99.90
11848;DHT22;5983;49.966;8.052;2023-04-15T06:04:59;4.80;99.90
11848;DHT22;5983;49.966;8.052;2023-04-15T06:07:26;5.00;99.90
11848;DHT22;5983;49.966;8.052;2023-04-15T06:09:52;5.20;99.90
11848;DHT22;5983;49.966;8.052;2023-04-15T06:12:19;5.40;99.90
11848;DHT22;5983;49.966;8.052;2023-04-15T06:14:46;5.60;99.90
11848;DHT22;5983;49.966;8.052;2023-04-15T06:17:14;5.80;99.90
11848;DHT22;5983;49.966;8.052;2023-04-15T06:19:42;5.90;99.90
11848;DHT22;5983;49.966;8.052;2023-04-15T06:22:09;6.10;99.90
11848;DHT22;5983;49.966;8.052;2023-04-15T06:24:36;6.40;99.90
11848;DHT22;5983;49.966;8.052;2023-04-15T06:27:02;6.60;99.90
11848;DHT22;5983;49.966;8.052;2023-04-15T06:29:29;6.90;99.90
11848;DHT22;5983;49.966;8.052;2023-04-15T06:31:56;7.30;99.90
11848;DHT22;5983;49.966;8.052;2023-04-15T06:34:24;7.90;99.90
11848;DHT22;5983;49.966;8.052;2023-04-15T06:36:51;8.60;99.90
11848;DHT22;5983;49.966;8.052;2023-04-15T06:39:19;9.30;99.90
11848;DHT22;5983;49.966;8.052;2023-04-15T06:41:45;9.80;99.90
11848;DHT22;5983;49.966;8.052;2023-04-15T06:44:12;10.20;99.90
11848;DHT22;5983;49.966;8.052;2023-04-15T06:46:39;10.50;99.90
11848;DHT22;5983;49.966;8.052;2023-04-15T06:49:05;10.60;99.90
11848;DHT22;5983;49.966;8.052;2023-04-15T06:51:34;10.60;99.90
11848;DHT22;5983;49.966;8.052;2023-04-15T06:54:01;10.60;99.90
11848;DHT22;5983;49.966;8.052;2023-04-15T06:56:30;10.50;99.90
11848;DHT22;5983;49.966;8.052;2023-04-15T06:58:57;10.30;99.90
11848;DHT22;5983;49.966;8.052;2023-04-15T07:01:23;10.10;99.90
11848;DHT22;5983;49.966;8.052;2023-04-15T07:03:50;10.00;99.90
11848;DHT22;5983;49.966;8.052;2023-04-15T07:06:17;9.90;99.90
11848;DHT22;5983;49.966;8.052;2023-04-15T07:08:45;10.00;99.90
11848;DHT22;5983;49.966;8.052;2023-04-15T07:11:12;10.00;99.90
11848;DHT22;5983;49.966;8.052;2023-04-15T07:13:39;10.00;99.90
11848;DHT22;5983;49.966;8.052;2023-04-15T07:16:06;10.00;99.90
11848;DHT22;5983;49.966;8.052;2023-04-15T07:18:33;10.10;99.90
11848;DHT22;5983;49.966;8.052;2023-04-15T07:20:59;10.10;99.90
11848;DHT22;5983;49.966;8.052;2023-04-15T07:23:26;10.20;99.90
11848;DHT22;5983;49.966;8.052;2023-04-15T07:25:55;10.30;99.90
11848;DHT22;5983;49.966;8.052;2023-04-15T07:28:22;10.40;99.90
11848;DHT22;5983;49.966;8.052;2023-04-15T07:30:48;10.50;99.90
11848;DHT22;5983;49.966;8.052;2023-04-15T07:33:15;10.70;99.90
11848;DHT22;5983;49.966;8.052;2023-04-15T07:35:42;10.90;99.90
11848;DHT22;5983;49.966;8.052;2023-04-15T07:38:09;11.20;99.90
11848;DHT22;5983;49.966;8.052;2023-04-15T07:40:37;11.70;99.90
11848;DHT22;5983;49.966;8.052;2023-04-15T07:43:06;12.30;99.90
11848;DHT22;5983;49.966;8.052;2023-04-15T07:45:33;12.90;99.90
11848;DHT22;5983;49.966;8.052;2023-04-15T07:48:00;13.30;99.90
11848;DHT22;5983;49.966;8.052;2023-04-15T07:50:27;13.70;99.90
11848;DHT22;5983;49.966;8.052;2023-04-15T07:52:54;14.00;99.90
11848;DHT22;5983;49.966;8.052;2023-04-15T07:55:21;14.40;99.90
11848;DHT22;5983;49.966;8.052;2023-04-15T07:57:48;15.00;99.90
11848;DHT22;5983;49.966;8.052;2023-04-15T08:00:16;15.40;99.90
11848;DHT22;5983;49.966;8.052;2023-04-15T08:02:43;15.80;99.90
11848;DHT22;5983;49.966;8.052;2023-04-15T08:05:12;16.10;99.90
11848;DHT22;5983;49.966;8.052;2023-04-15T08:07:39;16.40;99.90
11848;DHT22;5983;49.966;8.052;2023-04-15T08:10:06;16.70;99.90
11848;DHT22;5983;49.966;8.052;2023-04-15T08:12:34;16.80;99.90
11848;DHT22;5983;49.966;8.052;2023-04-15T08:15:01;17.00;99.90
11848;DHT22;5983;49.966;8.052;2023-04-15T08:17:29;17.30;99.90
11848;DHT22;5983;49.966;8.052;2023-04-15T08:19:56;17.50;99.90
11848;DHT22;5983;49.966;8.052;2023-04-15T08:22:22;17.80;99.90
11848;DHT22;5983;49.966;8.052;2023-04-15T08:24:49;18.00;99.90
11848;DHT22;5983;49.966;8.052;2023-04-15T08:27:16;18.00;99.40
11848;DHT22;5983;49.966;8.052;2023-04-15T08:29:43;18.00;98.60
11848;DHT22;5983;49.966;8.052;2023-04-15T08:32:10;17.70;98.30
11848;DHT22;5983;49.966;8.052;2023-04-15T08:34:39;17.50;98.60
11848;DHT22;5983;49.966;8.052;2023-04-15T08:37:06;17.30;98.80
11848;DHT22;5983;49.966;8.052;2023-04-15T08:39:32;17.10;99.10
11848;DHT22;5983;49.966;8.052;2023-04-15T08:41:59;17.00;99.40
11848;DHT22;5983;49.966;8.052;2023-04-15T08:44:28;17.00;99.90
11848;DHT22;5983;49.966;8.052;2023-04-15T08:46:58;17.10;99.00
11848;DHT22;5983;49.966;8.052;2023-04-15T08:49:27;17.20;97.70
11848;DHT22;5983;49.966;8.052;2023-04-15T08:51:56;17.30;97.30
11848;DHT22;5983;49.966;8.052;2023-04-15T08:54:24;17.50;97.50
11848;DHT22;5983;49.966;8.052;2023-04-15T08:56:51;17.80;96.70
11848;DHT22;5983;49.966;8.052;2023-04-15T08:59:18;18.00;95.80
11848;DHT22;5983;49.966;8.052;2023-04-15T09:01:47;18.10;94.30
11848;DHT22;5983;49.966;8.052;2023-04-15T09:04:14;18.00;93.60
11848;DHT22;5983;49.966;8.052;2023-04-15T09:06:42;18.00;93.30
11848;DHT22;5983;49.966;8.052;2023-04-15T09:09:10;18.20;93.40
11848;DHT22;5983;49.966;8.052;2023-04-15T09:11:38;18.60;94.20
11848;DHT22;5983;49.966;8.052;2023-04-15T09:14:05;19.00;93.90
11848;DHT22;5983;49.966;8.052;2023-04-15T09:16:32;19.20;91.50
11848;DHT22;5983;49.966;8.052;2023-04-15T09:19:22;19.40;91.00
11848;DHT22;5983;49.966;8.052;2023-04-15T09:21:51;19.80;90.40
11848;DHT22;5983;49.966;8.052;2023-04-15T09:24:21;20.00;88.30
11848;DHT22;5983;49.966;8.052;2023-04-15T09:26:50;20.20;87.40
11848;DHT22;5983;49.966;8.052;2023-04-15T09:29:18;20.30;84.70
11848;DHT22;5983;49.966;8.052;2023-04-15T09:31:44;20.20;79.50
11848;DHT22;5983;49.966;8.052;2023-04-15T09:34:11;20.00;79.70
11848;DHT22;5983;49.966;8.052;2023-04-15T09:36:50;20.00;78.20
11848;DHT22;5983;49.966;8.052;2023-04-15T09:39:18;20.00;72.20
11848;DHT22;5983;49.966;8.052;2023-04-15T09:41:47;20.00;72.70
11848;DHT22;5983;49.966;8.052;2023-04-15T09:44:29;20.10;70.20
11848;DHT22;5983;49.966;8.052;2023-04-15T09:46:56;20.10;69.40
11848;DHT22;5983;49.966;8.052;2023-04-15T09:49:23;20.00;66.70
11848;DHT22;5983;49.966;8.052;2023-04-15T09:51:50;19.90;65.80
11848;DHT22;5983;49.966;8.052;2023-04-15T09:54:22;19.70;64.70
11848;DHT22;5983;49.966;8.052;2023-04-15T09:56:51;19.60;62.30
11848;DHT22;5983;49.966;8.052;2023-04-15T09:59:17;19.50;61.30
11848;DHT22;5983;49.966;8.052;2023-04-15T10:01:44;19.50;60.50
11848;DHT22;5983;49.966;8.052;2023-04-15T10:04:12;19.50;62.40
11848;DHT22;5983;49.966;8.052;2023-04-15T10:06:39;19.50;60.90
11848;DHT22;5983;49.966;8.052;2023-04-15T10:09:06;19.50;61.00
11848;DHT22;5983;49.966;8.052;2023-04-15T10:11:34;19.50;60.30
11848;DHT22;5983;49.966;8.052;2023-04-15T10:14:02;19.40;60.10
11848;DHT22;5983;49.966;8.052;2023-04-15T10:16:29;19.20;60.20
11848;DHT22;5983;49.966;8.052;2023-04-15T10:18:59;19.00;60.60
11848;DHT22;5983;49.966;8.052;2023-04-15T10:21:29;18.80;60.80
11848;DHT22;5983;49.966;8.052;2023-04-15T10:23:56;18.50;60.60
11848;DHT22;5983;49.966;8.052;2023-04-15T10:26:23;18.40;60.90
11848;DHT22;5983;49.966;8.052;2023-04-15T10:28:50;18.40;62.90
11848;DHT22;5983;49.966;8.052;2023-04-15T10:31:20;18.50;62.40
11848;DHT22;5983;49.966;8.052;2023-04-15T10:33:48;18.60;60.40
11848;DHT22;5983;49.966;8.052;2023-04-15T10:36:15;18.60;60.30
11848;DHT22;5983;49.966;8.052;2023-04-15T10:38:44;18.60;60.00
11848;DHT22;5983;49.966;8.052;2023-04-15T10:41:12;18.70;60.40
11848;DHT22;5983;49.966;8.052;2023-04-15T10:43:44;18.80;61.80
11848;DHT22;5983;49.966;8.052;2023-04-15T10:46:13;18.90;61.30
11848;DHT22;5983;49.966;8.052;2023-04-15T10:48:48;18.90;61.10
11848;DHT22;5983;49.966;8.052;2023-04-15T10:51:25;19.00;61.30
11848;DHT22;5983;49.966;8.052;2023-04-15T10:53:57;19.10;60.40
11848;DHT22;5983;49.966;8.052;2023-04-15T10:56:26;19.50;61.30
11848;DHT22;5983;49.966;8.052;2023-04-15T10:58:53;19.80;59.90
11848;DHT22;5983;49.966;8.052;2023-04-15T11:01:20;20.10;58.40
11848;DHT22;5983;49.966;8.052;2023-04-15T11:03:49;20.30;58.20
11848;DHT22;5983;49.966;8.052;2023-04-15T11:06:16;20.40;56.00
11848;DHT22;5983;49.966;8.052;2023-04-15T11:08:53;20.50;56.80
11848;DHT22;5983;49.966;8.052;2023-04-15T11:11:21;20.80;56.50
11848;DHT22;5983;49.966;8.052;2023-04-15T11:13:48;21.00;56.00
11848;DHT22;5983;49.966;8.052;2023-04-15T11:16:16;21.00;55.00
11848;DHT22;5983;49.966;8.052;2023-04-15T11:18:53;20.90;53.50
11848;DHT22;5983;49.966;8.052;2023-04-15T11:21:23;20.70;52.70
11848;DHT22;5983;49.966;8.052;2023-04-15T11:23:51;20.20;52.30
11848;DHT22;5983;49.966;8.052;2023-04-15T11:26:18;19.70;53.10
11848;DHT22;5983;49.966;8.052;2023-04-15T11:28:45;19.30;55.00
11848;DHT22;5983;49.966;8.052;2023-04-15T11:31:12;18.90;55.70
11848;DHT22;5983;49.966;8.052;2023-04-15T11:33:46;18.60;56.30
11848;DHT22;5983;49.966;8.052;2023-04-15T11:36:22;18.40;56.70
11848;DHT22;5983;49.966;8.052;2023-04-15T11:38:50;18.10;56.60
11848;DHT22;5983;49.966;8.052;2023-04-15T11:41:19;18.00;54.30
11848;DHT22;5983;49.966;8.052;2023-04-15T11:43:46;17.80;54.60
11848;DHT22;5983;49.966;8.052;2023-04-15T11:46:13;17.60;55.00
11848;DHT22;5983;49.966;8.052;2023-04-15T11:48:41;17.50;55.80
11848;DHT22;5983;49.966;8.052;2023-04-15T11:51:10;17.50;56.40
11848;DHT22;5983;49.966;8.052;2023-04-15T11:53:39;17.50;56.90
11848;DHT22;5983;49.966;8.052;2023-04-15T11:56:07;17.60;57.40
11848;DHT22;5983;49.966;8.052;2023-04-15T11:58:36;17.70;58.10
11848;DHT22;5983;49.966;8.052;2023-04-15T12:01:04;17.80;58.20
11848;DHT22;5983;49.966;8.052;2023-04-15T12:03:35;17.70;57.50
11848;DHT22;5983;49.966;8.052;2023-04-15T12:06:03;17.70;58.40
11848;DHT22;5983;49.966;8.052;2023-04-15T12:08:56;17.60;59.00
11848;DHT22;5983;49.966;8.052;2023-04-15T12:11:28;17.60;59.20
11848;DHT22;5983;49.966;8.052;2023-04-15T12:14:02;17.50;59.30
11848;DHT22;5983;49.966;8.052;2023-04-15T12:16:31;17.50;59.60
11848;DHT22;5983;49.966;8.052;2023-04-15T12:18:59;17.60;59.60
11848;DHT22;5983;49.966;8.052;2023-04-15T12:21:34;17.70;60.10
11848;DHT22;5983;49.966;8.052;2023-04-15T12:24:02;17.80;61.00
11848;DHT22;5983;49.966;8.052;2023-04-15T12:26:32;17.90;61.20
11848;DHT22;5983;49.966;8.052;2023-04-15T12:29:00;18.00;61.10
11848;DHT22;5983;49.966;8.052;2023-04-15T12:31:28;18.00;61.70
11848;DHT22;5983;49.966;8.052;2023-04-15T12:33:55;18.10;62.30
11848;DHT22;5983;49.966;8.052;2023-04-15T12:36:22;18.10;63.00
11848;DHT22;5983;49.966;8.052;2023-04-15T12:38:51;18.10;63.70
11848;DHT22;5983;49.966;8.052;2023-04-15T12:41:18;18.10;64.10
11848;DHT22;5983;49.966;8.052;2023-04-15T12:43:45;18.00;65.20
11848;DHT22;5983;49.966;8.052;2023-04-15T12:46:12;17.80;66.10
11848;DHT22;5983;49.966;8.052;2023-04-15T12:48:39;17.60;66.90
11848;DHT22;5983;49.966;8.052;2023-04-15T12:51:06;17.30;66.80
11848;DHT22;5983;49.966;8.052;2023-04-15T12:53:33;17.10;67.20
11848;DHT22;5983;49.966;8.052;2023-04-15T12:56:01;16.90;68.90
11848;DHT22;5983;49.966;8.052;2023-04-15T12:58:28;16.70;69.70
11848;DHT22;5983;49.966;8.052;2023-04-15T13:00:55;16.50;70.40
11848;DHT22;5983;49.966;8.052;2023-04-15T13:03:22;16.40;72.20
11848;DHT22;5983;49.966;8.052;2023-04-15T13:05:49;16.30;73.30
11848;DHT22;5983;49.966;8.052;2023-04-15T13:08:16;16.20;73.90
11848;DHT22;5983;49.966;8.052;2023-04-15T13:10:43;16.20;75.10
11848;DHT22;5983;49.966;8.052;2023-04-15T13:13:11;16.10;75.90
11848;DHT22;5983;49.966;8.052;2023-04-15T13:15:38;16.10;77.60
11848;DHT22;5983;49.966;8.052;2023-04-15T13:18:06;16.10;78.50
11848;DHT22;5983;49.966;8.052;2023-04-15T13:20:32;16.20;79.10
11848;DHT22;5983;49.966;8.052;2023-04-15T13:22:59;16.30;80.80
11848;DHT22;5983;49.966;8.052;2023-04-15T13:25:26;16.40;80.90
11848;DHT22;5983;49.966;8.052;2023-04-15T13:27:53;16.40;81.70
11848;DHT22;5983;49.966;8.052;2023-04-15T13:30:21;16.40;81.70
11848;DHT22;5983;49.966;8.052;2023-04-15T13:32:48;16.30;81.60
11848;DHT22;5983;49.966;8.052;2023-04-15T13:35:15;16.30;82.70
11848;DHT22;5983;49.966;8.052;2023-04-15T13:37:41;16.40;83.10
11848;DHT22;5983;49.966;8.052;2023-04-15T13:40:08;16.40;81.80
11848;DHT22;5983;49.966;8.052;2023-04-15T13:42:36;16.40;82.20
11848;DHT22;5983;49.966;8.052;2023-04-15T13:45:03;16.20;82.00
11848;DHT22;5983;49.966;8.052;2023-04-15T13:47:31;16.10;83.90
11848;DHT22;5983;49.966;8.052;2023-04-15T13:49:58;15.90;85.80
11848;DHT22;5983;49.966;8.052;2023-04-15T13:52:25;15.60;87.90
11848;DHT22;5983;49.966;8.052;2023-04-15T13:54:52;15.50;89.20
11848;DHT22;5983;49.966;8.052;2023-04-15T13:57:18;15.30;89.70
11848;DHT22;5983;49.966;8.052;2023-04-15T13:59:45;15.20;90.80
11848;DHT22;5983;49.966;8.052;2023-04-15T14:02:12;15.20;91.60
11848;DHT22;5983;49.966;8.052;2023-04-15T14:04:40;15.20;92.20
11848;DHT22;5983;49.966;8.052;2023-04-15T14:07:07;15.20;92.90
11848;DHT22;5983;49.966;8.052;2023-04-15T14:09:34;15.20;94.30
11848;DHT22;5983;49.966;8.052;2023-04-15T14:12:00;15.20;95.10
11848;DHT22;5983;49.966;8.052;2023-04-15T14:14:27;15.20;95.50
11848;DHT22;5983;49.966;8.052;2023-04-15T14:16:54;15.20;95.80
11848;DHT22;5983;49.966;8.052;2023-04-15T14:19:21;15.20;96.20
11848;DHT22;5983;49.966;8.052;2023-04-15T14:21:50;15.20;97.70
11848;DHT22;5983;49.966;8.052;2023-04-15T14:24:16;15.00;98.50
11848;DHT22;5983;49.966;8.052;2023-04-15T14:26:43;14.90;99.20
11848;DHT22;5983;49.966;8.052;2023-04-15T14:29:10;14.90;99.90
11848;DHT22;5983;49.966;8.052;2023-04-15T14:31:37;14.70;99.90
11848;DHT22;5983;49.966;8.052;2023-04-15T14:34:04;14.60;99.90
11848;DHT22;5983;49.966;8.052;2023-04-15T14:36:30;14.50;99.90
11848;DHT22;5983;49.966;8.052;2023-04-15T14:38:59;14.40;99.90
11848;DHT22;5983;49.966;8.052;2023-04-15T14:41:25;14.20;99.90
11848;DHT22;5983;49.966;8.052;2023-04-15T14:43:52;14.10;99.90
11848;DHT22;5983;49.966;8.052;2023-04-15T14:46:19;13.90;99.90
11848;DHT22;5983;49.966;8.052;2023-04-15T14:48:46;13.80;99.90
11848;DHT22;5983;49.966;8.052;2023-04-15T14:51:13;13.70;99.90
11848;DHT22;5983;49.966;8.052;2023-04-15T14:53:40;13.60;99.90
11848;DHT22;5983;49.966;8.052;2023-04-15T14:56:08;13.60;99.90
11848;DHT22;5983;49.966;8.052;2023-04-15T14:58:35;13.50;99.90
11848;DHT22;5983;49.966;8.052;2023-04-15T15:01:02;13.50;99.90
11848;DHT22;5983;49.966;8.052;2023-04-15T15:03:29;13.50;99.90
11848;DHT22;5983;49.966;8.052;2023-04-15T15:05:56;13.60;99.90
11848;DHT22;5983;49.966;8.052;2023-04-15T15:08:23;13.60;99.90
11848;DHT22;5983;49.966;8.052;2023-04-15T15:10:50;13.60;99.90
11848;DHT22;5983;49.966;8.052;2023-04-15T15:13:18;13.60;99.90
11848;DHT22;5983;49.966;8.052;2023-04-15T15:15:45;13.60;99.90
11848;DHT22;5983;49.966;8.052;2023-04-15T15:18:13;13.60;99.90
11848;DHT22;5983;49.966;8.052;2023-04-15T15:20:41;13.50;99.90
11848;DHT22;5983;49.966;8.052;2023-04-15T15:23:07;13.40;99.90
11848;DHT22;5983;49.966;8.052;2023-04-15T15:25:34;13.40;99.90
11848;DHT22;5983;49.966;8.052;2023-04-15T15:28:01;13.30;99.90
11848;DHT22;5983;49.966;8.052;2023-04-15T15:30:29;13.20;99.90
11848;DHT22;5983;49.966;8.052;2023-04-15T15:32:56;13.20;99.90
11848;DHT22;5983;49.966;8.052;2023-04-15T15:35:22;13.10;99.90
11848;DHT22;5983;49.966;8.052;2023-04-15T15:37:50;13.10;99.90
11848;DHT22;5983;49.966;8.052;2023-04-15T15:40:17;13.20;99.90
11848;DHT22;5983;49.966;8.052;2023-04-15T15:42:44;13.30;99.90
11848;DHT22;5983;49.966;8.052;2023-04-15T15:45:14;13.20;99.90
11848;DHT22;5983;49.966;8.052;2023-04-15T15:47:42;13.20;99.90
11848;DHT22;5983;49.966;8.052;2023-04-15T15:50:09;13.10;99.90
11848;DHT22;5983;49.966;8.052;2023-04-15T15:52:36;13.00;99.90
11848;DHT22;5983;49.966;8.052;2023-04-15T15:55:03;13.00;99.90